Watertown, Wisconsin
Current Conditions -  °F | °C
As of 2:00 AM on Thursday 29 Jan 2015 (Local Time) from KRYV Reporting Station
Overcast Overcast  
Wind Chill:   Ceiling: 2300
Heat Index:   Visibility: 10mi
Dew Point: -3°   Wind: 0mph
Humidity: 80%   Direction: NA
Pressure: 29.76"   Gusts: NA
Location:  43.2°N, 88.72°W
Report Text: KRYV 290800Z AUTO 00000KT 10SM OVC023 00/M03 A2976 RMK AO2 T10021032
Loading
Personal Weather Stations






























Interactive Weather Map New forecast layout! Learn more

10-Day Weather Forecast

Advertisements
Track Severe Weather on mobile